createdAt,value
2016-11-06T11:05:01.891Z,997.15
2016-11-06T11:05:27.463Z,997.12
2016-11-06T11:05:53.053Z,997.16
2016-11-06T11:06:18.616Z,997.14
2016-11-06T11:06:44.169Z,997.15
2016-11-06T11:07:09.838Z,997.13
2016-11-06T11:07:35.369Z,997.13
2016-11-06T11:08:00.928Z,997.15
2016-11-06T11:08:26.479Z,997.15
2016-11-06T11:08:52.030Z,997.13
2016-11-06T11:09:17.598Z,997.15
2016-11-06T11:09:43.298Z,997.15
2016-11-06T11:10:08.885Z,997.15
2016-11-06T11:10:34.524Z,997.19
2016-11-06T11:11:00.055Z,997.14
2016-11-06T11:11:25.609Z,997.16
2016-11-06T11:11:51.156Z,997.19
2016-11-06T11:12:16.717Z,997.17
2016-11-06T11:12:42.307Z,997.14
2016-11-06T11:13:07.881Z,997.21
2016-11-06T11:13:33.536Z,997.2
2016-11-06T11:13:59.090Z,997.18
2016-11-06T11:14:24.654Z,997.17
2016-11-06T11:14:50.219Z,997.15
2016-11-06T11:15:16.011Z,997.12
2016-11-06T11:15:41.553Z,997.19
2016-11-06T11:16:07.128Z,997.17
2016-11-06T11:16:32.752Z,997.21
2016-11-06T11:16:58.328Z,997.17
2016-11-06T11:17:23.916Z,997.17
2016-11-06T11:17:49.502Z,997.19
2016-11-06T11:18:15.164Z,997.18
2016-11-06T11:18:40.721Z,997.2
2016-11-06T11:19:06.280Z,997.12
2016-11-06T11:19:31.857Z,997.16
2016-11-06T11:19:57.406Z,997.15
2016-11-06T11:20:23.014Z,997.17
2016-11-06T11:20:48.606Z,997.15
2016-11-06T11:21:14.217Z,997.14
2016-11-06T11:21:39.796Z,997.14
2016-11-06T11:22:05.383Z,997.16
2016-11-06T11:22:30.941Z,997.13
2016-11-06T11:22:56.588Z,997.11
2016-11-06T11:23:22.218Z,997.15
2016-11-06T11:23:47.810Z,997.12
2016-11-06T11:24:13.377Z,997.14
2016-11-06T11:24:39.026Z,997.14
2016-11-06T11:25:04.608Z,997.15
2016-11-06T11:25:30.207Z,997.11
2016-11-06T11:25:55.767Z,997.13
2016-11-06T11:26:21.335Z,997.18
2016-11-06T11:26:46.912Z,997.12
2016-11-06T11:27:12.548Z,997.1
2016-11-06T11:27:38.205Z,997.11
2016-11-06T11:28:03.775Z,997.09
2016-11-06T11:28:29.349Z,997.09
2016-11-06T11:28:54.904Z,997.09
2016-11-06T11:29:20.469Z,997.1
2016-11-06T11:29:46.037Z,997.1
2016-11-06T11:30:11.599Z,997.09
2016-11-06T11:30:37.178Z,997.15
2016-11-06T11:31:02.759Z,997.08
2016-11-06T11:31:28.357Z,997.14
2016-11-06T11:31:53.919Z,997.17
2016-11-06T11:32:19.507Z,997.07
2016-11-06T11:32:45.160Z,997.09
2016-11-06T11:33:10.733Z,997.08
2016-11-06T11:33:36.360Z,997.06
2016-11-06T11:34:01.991Z,997.1
2016-11-06T11:34:27.560Z,997.08
2016-11-06T11:34:53.108Z,997.08
2016-11-06T11:35:18.693Z,997.11
2016-11-06T11:35:44.221Z,997.12
2016-11-06T11:36:09.790Z,997.11
2016-11-06T11:36:35.356Z,997.1
2016-11-06T11:37:00.945Z,997.11
2016-11-06T11:37:26.535Z,997.16
2016-11-06T11:37:52.109Z,997.17
2016-11-06T11:38:17.701Z,997.21
2016-11-06T11:38:43.259Z,997.17
2016-11-06T11:39:08.901Z,997.18
2016-11-06T11:39:34.501Z,997.17
2016-11-06T11:40:00.079Z,997.16
2016-11-06T11:40:25.704Z,997.18
2016-11-06T11:40:51.378Z,997.14
2016-11-06T11:41:16.980Z,997.15
2016-11-06T11:41:42.531Z,997.18
2016-11-06T11:42:08.112Z,997.17
2016-11-06T11:42:33.672Z,997.17
2016-11-06T11:42:59.242Z,997.18
2016-11-06T11:43:24.831Z,997.17
2016-11-06T11:43:50.428Z,997.19
2016-11-06T11:44:15.989Z,997.18
2016-11-06T11:44:41.563Z,997.18
2016-11-06T11:45:07.143Z,997.17
2016-11-06T11:45:32.717Z,997.19
2016-11-06T11:45:58.304Z,997.18
2016-11-06T11:46:23.890Z,997.19
2016-11-06T11:46:49.454Z,997.18
2016-11-06T11:47:15.044Z,997.19
2016-11-06T11:47:40.593Z,997.22
2016-11-06T11:48:06.164Z,997.19
2016-11-06T11:48:31.734Z,997.17
2016-11-06T11:48:57.327Z,997.18
2016-11-06T11:49:22.901Z,997.19
2016-11-06T11:49:48.519Z,997.22
2016-11-06T11:50:14.002Z,997.21
2016-11-06T11:50:39.577Z,997.19
2016-11-06T11:51:05.145Z,997.18
2016-11-06T11:51:30.768Z,997.2
2016-11-06T11:51:56.337Z,997.21
2016-11-06T11:52:21.911Z,997.22
2016-11-06T11:52:47.471Z,997.18
2016-11-06T11:53:13.061Z,997.21
2016-11-06T11:53:38.648Z,997.23
2016-11-06T11:54:04.219Z,997.18
2016-11-06T11:54:29.864Z,997.2
2016-11-06T11:54:55.433Z,997.2
2016-11-06T11:55:21.005Z,997.27
2016-11-06T11:55:46.570Z,997.18
2016-11-06T11:56:12.283Z,997.21
2016-11-06T11:56:37.821Z,997.18
2016-11-06T11:57:03.411Z,997.24
2016-11-06T11:57:29.093Z,997.19
2016-11-06T11:57:54.700Z,997.22
2016-11-06T11:58:20.249Z,997.27
2016-11-06T11:58:45.840Z,997.24
2016-11-06T11:59:11.400Z,997.26
2016-11-06T11:59:36.942Z,997.27
2016-11-06T12:00:02.488Z,997.18
2016-11-06T12:00:28.041Z,997.24
2016-11-06T12:00:53.598Z,997.31
2016-11-06T12:01:19.256Z,997.31
2016-11-06T12:01:44.809Z,997.23
2016-11-06T12:02:10.352Z,997.32
2016-11-06T12:02:36.009Z,997.28
2016-11-06T12:03:01.561Z,997.27
2016-11-06T12:03:27.128Z,997.22
2016-11-06T12:03:52.711Z,997.3
2016-11-06T12:04:18.298Z,997.29
2016-11-06T12:04:44.832Z,997.26
2016-11-06T12:05:09.442Z,997.29
2016-11-06T12:05:35.045Z,997.3
2016-11-06T12:06:00.589Z,997.32
2016-11-06T12:06:26.208Z,997.28
2016-11-06T12:06:51.778Z,997.3
2016-11-06T12:07:17.356Z,997.33
2016-11-06T12:07:42.910Z,997.31
2016-11-06T12:08:08.566Z,997.27
2016-11-06T12:08:34.145Z,997.31
2016-11-06T12:08:59.837Z,997.27
2016-11-06T12:09:25.405Z,997.29
2016-11-06T12:09:50.972Z,997.26
2016-11-06T12:10:16.536Z,997.27
2016-11-06T12:11:30.140Z,997.32
2016-11-06T12:11:55.677Z,997.3
2016-11-06T12:12:21.242Z,997.31
2016-11-06T12:12:46.876Z,997.28
2016-11-06T12:13:12.447Z,997.27
2016-11-06T12:13:38.009Z,997.29
2016-11-06T12:14:03.641Z,997.3
2016-11-06T12:14:29.265Z,997.31
2016-11-06T12:14:54.844Z,997.29
2016-11-06T12:15:20.419Z,997.29
2016-11-06T12:15:46.077Z,997.36
2016-11-06T12:16:11.609Z,997.34
2016-11-06T12:16:37.165Z,997.33
2016-11-06T12:17:45.550Z,997.32
2016-11-06T12:18:11.133Z,997.36
2016-11-06T12:18:36.701Z,997.34
2016-11-06T12:19:02.265Z,997.38
2016-11-06T12:19:27.815Z,997.4
2016-11-06T12:19:53.363Z,997.37
2016-11-06T12:20:18.961Z,997.36
2016-11-06T12:20:44.526Z,997.38
2016-11-06T12:21:10.079Z,997.36
2016-11-06T12:21:35.656Z,997.37
2016-11-06T12:22:01.273Z,997.39
2016-11-06T12:22:26.844Z,997.39
2016-11-06T12:22:52.465Z,997.39
2016-11-06T12:23:18.025Z,997.34
2016-11-06T12:23:43.661Z,997.35
2016-11-06T12:24:09.233Z,997.39
2016-11-06T12:24:34.913Z,997.38
2016-11-06T12:25:00.456Z,997.37
2016-11-06T12:25:26.031Z,997.33
2016-11-06T12:25:51.576Z,997.37
2016-11-06T12:26:17.129Z,997.36
2016-11-06T12:26:42.695Z,997.36
2016-11-06T12:27:08.289Z,997.36
2016-11-06T12:27:33.830Z,997.41
2016-11-06T12:27:59.438Z,997.39
2016-11-06T12:28:25.085Z,997.34
2016-11-06T12:28:50.653Z,997.35
2016-11-06T12:29:16.207Z,997.35
2016-11-06T12:29:41.802Z,997.4
2016-11-06T12:30:07.492Z,997.38
2016-11-06T12:30:33.061Z,997.42
2016-11-06T12:30:58.625Z,997.38
2016-11-06T12:31:24.265Z,997.39
2016-11-06T12:31:49.813Z,997.41
2016-11-06T12:32:15.379Z,997.38
2016-11-06T12:32:40.944Z,997.4
2016-11-06T12:33:06.666Z,997.39
2016-11-06T12:33:32.231Z,997.41
2016-11-06T12:33:57.811Z,997.43
2016-11-06T12:34:23.375Z,997.41
2016-11-06T12:34:48.947Z,997.41
2016-11-06T12:35:14.517Z,997.39
2016-11-06T12:35:40.076Z,997.38
2016-11-06T12:36:38.186Z,997.4
2016-11-06T12:37:03.775Z,997.35
2016-11-06T12:37:29.312Z,997.39
2016-11-06T12:37:54.868Z,997.42
2016-11-06T12:38:20.417Z,997.38
2016-11-06T12:38:46.010Z,997.37
2016-11-06T12:39:11.575Z,997.39
2016-11-06T12:39:37.134Z,997.38
2016-11-06T12:40:02.678Z,997.39
2016-11-06T12:40:28.226Z,997.38
2016-11-06T12:40:53.876Z,997.35
2016-11-06T12:41:19.435Z,997.4
2016-11-06T12:41:45.030Z,997.36
2016-11-06T12:42:10.615Z,997.36
2016-11-06T12:42:36.180Z,997.4
2016-11-06T12:43:01.737Z,997.43
2016-11-06T12:43:27.289Z,997.37
2016-11-06T12:43:52.867Z,997.37
2016-11-06T12:44:18.437Z,997.41
2016-11-06T12:44:44.067Z,997.4
2016-11-06T12:45:09.656Z,997.4
2016-11-06T12:45:35.231Z,997.35
2016-11-06T12:46:00.799Z,997.35
2016-11-06T12:46:26.359Z,997.35
2016-11-06T12:46:51.922Z,997.38
2016-11-06T12:47:17.464Z,997.38
2016-11-06T12:47:43.055Z,997.34
2016-11-06T12:48:08.608Z,997.36
2016-11-06T12:48:34.190Z,997.38
2016-11-06T12:48:59.764Z,997.38
2016-11-06T12:49:25.344Z,997.34
2016-11-06T12:49:51.012Z,997.29
2016-11-06T12:50:16.658Z,997.31
2016-11-06T12:50:42.254Z,997.36
2016-11-06T12:51:07.835Z,997.36
2016-11-06T12:51:33.410Z,997.33
2016-11-06T12:51:58.979Z,997.37
2016-11-06T12:52:24.542Z,997.38
2016-11-06T12:52:50.109Z,997.37
2016-11-06T12:53:15.676Z,997.37
2016-11-06T12:53:41.223Z,997.36
2016-11-06T12:54:06.808Z,997.36
2016-11-06T12:54:32.381Z,997.34
2016-11-06T12:54:58.020Z,997.39
2016-11-06T12:55:23.576Z,997.37
2016-11-06T12:55:49.156Z,997.36
2016-11-06T12:56:14.724Z,997.36
2016-11-06T12:56:40.294Z,997.32
2016-11-06T12:57:05.867Z,997.4
2016-11-06T12:57:31.426Z,997.34
2016-11-06T12:57:57.002Z,997.35
2016-11-06T12:58:22.626Z,997.32
2016-11-06T12:58:48.178Z,997.32
2016-11-06T12:59:13.768Z,997.33
2016-11-06T12:59:39.335Z,997.32
2016-11-06T13:00:05.016Z,997.28
2016-11-06T13:00:30.568Z,997.29
2016-11-06T13:00:56.133Z,997.29
2016-11-06T13:01:21.756Z,997.31
2016-11-06T13:01:47.305Z,997.36
2016-11-06T13:02:12.884Z,997.31
2016-11-06T13:02:38.421Z,997.31
2016-11-06T13:03:04.134Z,997.3
2016-11-06T13:03:29.694Z,997.31
2016-11-06T13:03:55.247Z,997.32
2016-11-06T13:04:20.953Z,997.32
2016-11-06T13:04:46.556Z,997.35
2016-11-06T13:05:12.123Z,997.32
2016-11-06T13:05:38.632Z,997.32
2016-11-06T13:06:04.265Z,997.3
2016-11-06T13:06:29.915Z,997.31
2016-11-06T13:07:28.079Z,997.33
2016-11-06T13:07:53.656Z,997.33
2016-11-06T13:08:19.214Z,997.33
2016-11-06T13:08:44.759Z,997.33
2016-11-06T13:09:10.392Z,997.3
2016-11-06T13:09:35.996Z,997.31
2016-11-06T13:10:01.586Z,997.34
2016-11-06T13:10:27.140Z,997.33
2016-11-06T13:10:52.692Z,997.35
2016-11-06T13:11:18.280Z,997.3
2016-11-06T13:11:43.844Z,997.33
2016-11-06T13:12:09.399Z,997.34
2016-11-06T13:12:34.977Z,997.3
2016-11-06T13:13:00.572Z,997.34
2016-11-06T13:13:26.127Z,997.36
2016-11-06T13:13:51.760Z,997.33
2016-11-06T13:14:17.386Z,997.34
2016-11-06T13:14:42.930Z,997.37
2016-11-06T13:15:08.506Z,997.35
2016-11-06T13:15:34.169Z,997.36
2016-11-06T13:15:59.767Z,997.33
2016-11-06T13:16:25.332Z,997.39
2016-11-06T13:16:51.019Z,997.36
2016-11-06T13:17:16.585Z,997.39
2016-11-06T13:17:42.130Z,997.38
2016-11-06T13:18:07.705Z,997.37
2016-11-06T13:18:33.286Z,997.36
2016-11-06T13:18:58.869Z,997.38
2016-11-06T13:19:24.412Z,997.37
2016-11-06T13:19:49.969Z,997.38
2016-11-06T13:20:15.605Z,997.35
2016-11-06T13:20:41.199Z,997.4
2016-11-06T13:21:06.755Z,997.36
2016-11-06T13:21:32.309Z,997.39
2016-11-06T13:21:57.876Z,997.36
2016-11-06T13:22:23.519Z,997.38
2016-11-06T13:22:49.077Z,997.35
2016-11-06T13:23:14.757Z,997.34
2016-11-06T13:23:40.358Z,997.35
2016-11-06T13:24:05.911Z,997.39
2016-11-06T13:24:31.470Z,997.39
2016-11-06T13:24:57.171Z,997.36
2016-11-06T13:25:22.763Z,997.36
2016-11-06T13:25:48.318Z,997.36
2016-11-06T13:26:13.906Z,997.36
2016-11-06T13:26:39.546Z,997.38
2016-11-06T13:27:05.110Z,997.38
2016-11-06T13:28:13.438Z,997.35
2016-11-06T13:28:39.014Z,997.38
2016-11-06T13:29:04.612Z,997.37
2016-11-06T13:29:30.185Z,997.39
2016-11-06T13:29:55.836Z,997.4
2016-11-06T13:30:21.431Z,997.39
2016-11-06T13:30:47.006Z,997.4
2016-11-06T13:31:12.629Z,997.41
2016-11-06T13:31:38.188Z,997.4
2016-11-06T13:32:03.766Z,997.39
2016-11-06T13:32:29.326Z,997.39
2016-11-06T13:32:54.870Z,997.39
2016-11-06T13:33:20.432Z,997.44
2016-11-06T13:33:46.031Z,997.43
2016-11-06T13:34:11.615Z,997.42
2016-11-06T13:34:37.195Z,997.44
2016-11-06T13:35:02.788Z,997.44
2016-11-06T13:35:28.415Z,997.44
2016-11-06T13:35:53.985Z,997.42
2016-11-06T13:36:19.585Z,997.43
2016-11-06T13:36:45.195Z,997.43
2016-11-06T13:37:10.749Z,997.44
2016-11-06T13:37:36.326Z,997.48
2016-11-06T13:38:02.040Z,997.43
2016-11-06T13:38:27.587Z,997.45
2016-11-06T13:38:53.149Z,997.48
2016-11-06T13:39:18.758Z,997.48
2016-11-06T13:39:44.444Z,997.49
2016-11-06T13:40:10.027Z,997.48
2016-11-06T13:40:35.615Z,997.49
2016-11-06T13:41:01.177Z,997.52
2016-11-06T13:41:26.847Z,997.48
2016-11-06T13:41:52.404Z,997.54
2016-11-06T13:42:18.051Z,997.49
2016-11-06T13:42:43.611Z,997.49
2016-11-06T13:43:09.173Z,997.49
2016-11-06T13:43:34.774Z,997.53
2016-11-06T13:44:00.370Z,997.49
2016-11-06T13:44:25.930Z,997.49
2016-11-06T13:44:51.502Z,997.45
2016-11-06T13:45:17.073Z,997.47
2016-11-06T13:45:42.649Z,997.53
2016-11-06T13:46:08.190Z,997.49
2016-11-06T13:46:33.763Z,997.48
2016-11-06T13:46:59.406Z,997.49
2016-11-06T13:47:24.894Z,997.52
2016-11-06T13:47:50.465Z,997.5
2016-11-06T13:48:16.080Z,997.5
2016-11-06T13:48:41.644Z,997.52
2016-11-06T13:49:07.342Z,997.51
2016-11-06T13:49:32.909Z,997.56
2016-11-06T13:49:58.464Z,997.5
2016-11-06T13:50:24.073Z,997.52
2016-11-06T13:50:49.642Z,997.52
2016-11-06T13:51:15.229Z,997.54
2016-11-06T13:51:40.795Z,997.49
2016-11-06T13:52:06.339Z,997.54
2016-11-06T13:52:32.006Z,997.54
2016-11-06T13:52:57.573Z,997.56
2016-11-06T13:53:23.126Z,997.54
2016-11-06T13:53:48.701Z,997.57
2016-11-06T13:54:14.390Z,997.55
2016-11-06T13:54:39.968Z,997.57
2016-11-06T13:55:05.524Z,997.62
2016-11-06T13:55:31.095Z,997.57
2016-11-06T13:55:56.778Z,997.58
2016-11-06T13:56:22.331Z,997.59
2016-11-06T13:56:48.022Z,997.6
2016-11-06T13:57:13.574Z,997.58
2016-11-06T13:57:39.150Z,997.58
2016-11-06T13:58:04.731Z,997.57
2016-11-06T13:58:30.350Z,997.65
2016-11-06T13:58:55.936Z,997.61
2016-11-06T13:59:21.635Z,997.61
2016-11-06T13:59:47.189Z,997.61
2016-11-06T14:00:12.791Z,997.59
2016-11-06T14:00:38.357Z,997.59
2016-11-06T14:01:04.030Z,997.65
2016-11-06T14:01:29.625Z,997.61
2016-11-06T14:01:55.211Z,997.67
2016-11-06T14:02:20.785Z,997.66
2016-11-06T14:02:46.441Z,997.65
2016-11-06T14:03:12.110Z,997.65
2016-11-06T14:03:37.664Z,997.66
2016-11-06T14:04:03.234Z,997.65
2016-11-06T14:04:28.786Z,997.64
2016-11-06T14:04:54.353Z,997.66
2016-11-06T14:05:19.915Z,997.67
2016-11-06T14:05:45.477Z,997.71
2016-11-06T14:06:11.123Z,997.7
2016-11-06T14:06:36.662Z,997.67
2016-11-06T14:07:02.262Z,997.67
2016-11-06T14:07:27.813Z,997.69
2016-11-06T14:07:53.418Z,997.65
2016-11-06T14:08:19.035Z,997.66
2016-11-06T14:08:44.586Z,997.71
2016-11-06T14:09:10.275Z,997.69
2016-11-06T14:09:35.859Z,997.72
2016-11-06T14:10:01.423Z,997.69
2016-11-06T14:10:27.015Z,997.71
2016-11-06T14:10:52.657Z,997.68
2016-11-06T14:11:18.238Z,997.75
2016-11-06T14:11:43.795Z,997.74
2016-11-06T14:12:09.458Z,997.74
2016-11-06T14:12:35.035Z,997.77
2016-11-06T14:13:00.592Z,997.76
2016-11-06T14:13:26.237Z,997.73
2016-11-06T14:13:51.811Z,997.72
2016-11-06T14:14:17.373Z,997.73
2016-11-06T14:14:43.035Z,997.8
2016-11-06T14:15:08.611Z,997.77
2016-11-06T14:15:34.189Z,997.75
2016-11-06T14:15:59.743Z,997.76
2016-11-06T14:16:25.312Z,997.75
2016-11-06T14:16:50.920Z,997.77
2016-11-06T14:17:16.485Z,997.77
2016-11-06T14:17:42.056Z,997.77
2016-11-06T14:18:07.643Z,997.74
2016-11-06T14:18:33.189Z,997.8
2016-11-06T14:18:58.819Z,997.78
2016-11-06T14:19:24.388Z,997.78
2016-11-06T14:19:50.034Z,997.83
2016-11-06T14:20:15.623Z,997.83
2016-11-06T14:20:41.192Z,997.8
2016-11-06T14:21:06.789Z,997.83
2016-11-06T14:21:32.382Z,997.81
2016-11-06T14:21:57.925Z,997.84
2016-11-06T14:22:23.492Z,997.84
2016-11-06T14:22:49.172Z,997.84
2016-11-06T14:23:14.745Z,997.79
2016-11-06T14:23:40.315Z,997.81
2016-11-06T14:24:05.911Z,997.83
2016-11-06T14:24:31.466Z,997.83
2016-11-06T14:24:57.070Z,997.81
2016-11-06T14:25:22.625Z,997.84
2016-11-06T14:25:48.189Z,997.82
2016-11-06T14:26:13.770Z,997.81
2016-11-06T14:26:39.333Z,997.83
2016-11-06T14:27:04.903Z,997.84
2016-11-06T14:27:30.477Z,997.85
2016-11-06T14:27:56.176Z,997.88
2016-11-06T14:28:21.819Z,997.83
2016-11-06T14:28:47.397Z,997.87
2016-11-06T14:29:13.013Z,997.86
2016-11-06T14:29:38.618Z,997.87
2016-11-06T14:30:04.271Z,997.87
2016-11-06T14:30:29.818Z,997.87
2016-11-06T14:30:55.369Z,997.91
2016-11-06T14:31:20.927Z,997.92
2016-11-06T14:31:46.498Z,997.88
2016-11-06T14:33:00.126Z,997.92
2016-11-06T14:33:25.815Z,997.9
2016-11-06T14:33:51.412Z,997.92
2016-11-06T14:34:16.977Z,997.93
2016-11-06T14:34:42.556Z,997.96
2016-11-06T14:35:08.125Z,997.9
2016-11-06T14:35:33.705Z,997.93
2016-11-06T14:35:59.267Z,997.93
2016-11-06T14:36:24.831Z,997.97
2016-11-06T14:36:50.417Z,997.97
2016-11-06T14:37:16.009Z,997.98
2016-11-06T14:37:41.652Z,998
2016-11-06T14:38:07.210Z,998
2016-11-06T14:38:32.756Z,997.99
2016-11-06T14:38:58.350Z,997.99
2016-11-06T14:39:23.904Z,998.01
2016-11-06T14:39:49.448Z,997.99
2016-11-06T14:40:15.016Z,998.03
2016-11-06T14:40:40.585Z,998.04
2016-11-06T14:41:06.243Z,998.03
2016-11-06T14:41:31.771Z,998.03
2016-11-06T14:41:57.336Z,998.05
2016-11-06T14:42:23.005Z,998.02
2016-11-06T14:42:48.643Z,998
2016-11-06T14:43:14.219Z,998.04
2016-11-06T14:43:39.759Z,998.02
2016-11-06T14:44:05.379Z,998.02
2016-11-06T14:44:30.959Z,998.04
2016-11-06T14:44:56.542Z,998.06
2016-11-06T14:45:22.137Z,998.05
2016-11-06T14:45:47.720Z,998.09
2016-11-06T14:46:13.281Z,998.1
2016-11-06T14:46:38.843Z,998.06
2016-11-06T14:47:04.426Z,998.09
2016-11-06T14:47:30.014Z,998.1
2016-11-06T14:47:55.591Z,998.1
2016-11-06T14:48:21.146Z,998.09
2016-11-06T14:48:46.724Z,998.09
2016-11-06T14:49:12.381Z,998.11
2016-11-06T14:49:37.982Z,998.09
2016-11-06T14:50:03.546Z,998.09
2016-11-06T14:50:29.117Z,998.07
2016-11-06T14:50:54.667Z,998.12
2016-11-06T14:51:20.249Z,998.12
2016-11-06T14:51:45.828Z,998.1
2016-11-06T14:52:11.415Z,998.13
2016-11-06T14:52:36.953Z,998.11
2016-11-06T14:53:02.528Z,998.12
2016-11-06T14:53:28.088Z,998.15
2016-11-06T14:53:53.760Z,998.14
2016-11-06T14:54:19.372Z,998.13
2016-11-06T14:54:44.930Z,998.12
2016-11-06T14:55:10.518Z,998.11
2016-11-06T14:55:36.158Z,998.11
2016-11-06T14:56:01.718Z,998.12
2016-11-06T14:56:27.297Z,998.15
2016-11-06T14:56:52.858Z,998.1
2016-11-06T14:57:18.406Z,998.12
2016-11-06T14:57:43.992Z,998.14
2016-11-06T14:58:09.570Z,998.14
2016-11-06T14:58:35.125Z,998.15
2016-11-06T14:59:00.699Z,998.17
2016-11-06T14:59:26.310Z,998.13
2016-11-06T14:59:51.908Z,998.18
2016-11-06T15:00:17.491Z,998.16
2016-11-06T15:00:43.063Z,998.16
2016-11-06T15:01:08.766Z,998.16
2016-11-06T15:01:34.348Z,998.15
2016-11-06T15:01:59.948Z,998.17
2016-11-06T15:02:25.557Z,998.18
2016-11-06T15:02:51.126Z,998.16
2016-11-06T15:03:16.701Z,998.17
2016-11-06T15:03:42.277Z,998.15
2016-11-06T15:04:07.806Z,998.17
2016-11-06T15:04:33.369Z,998.16
2016-11-06T15:04:58.961Z,998.19
2016-11-06T15:05:24.535Z,998.16
2016-11-06T15:05:50.130Z,998.19
2016-11-06T15:06:15.727Z,998.22
2016-11-06T15:06:41.313Z,998.21
2016-11-06T15:07:06.966Z,998.19
2016-11-06T15:07:32.558Z,998.17
2016-11-06T15:07:58.115Z,998.2
2016-11-06T15:08:23.689Z,998.15
2016-11-06T15:08:49.270Z,998.2
2016-11-06T15:09:14.890Z,998.2
2016-11-06T15:09:40.460Z,998.17
2016-11-06T15:10:06.031Z,998.22
2016-11-06T15:10:31.634Z,998.24
2016-11-06T15:10:57.211Z,998.22
2016-11-06T15:11:22.857Z,998.22
2016-11-06T15:11:48.519Z,998.22
2016-11-06T15:12:14.094Z,998.23
2016-11-06T15:12:39.658Z,998.25
2016-11-06T15:13:05.312Z,998.22
2016-11-06T15:13:30.947Z,998.25
2016-11-06T15:13:56.508Z,998.23
2016-11-06T15:14:22.066Z,998.25
2016-11-06T15:14:47.720Z,998.21
2016-11-06T15:15:13.288Z,998.22
2016-11-06T15:15:38.850Z,998.25
2016-11-06T15:16:04.398Z,998.24
2016-11-06T15:16:29.975Z,998.23
2016-11-06T15:16:55.530Z,998.27
2016-11-06T15:17:21.095Z,998.28
2016-11-06T15:17:46.695Z,998.25
2016-11-06T15:18:12.245Z,998.24
2016-11-06T15:18:37.835Z,998.26
2016-11-06T15:19:03.422Z,998.25
2016-11-06T15:19:28.985Z,998.3
2016-11-06T15:19:54.575Z,998.31
2016-11-06T15:20:20.137Z,998.28
2016-11-06T15:20:45.712Z,998.3
2016-11-06T15:21:11.292Z,998.31
2016-11-06T15:21:36.900Z,998.31
2016-11-06T15:22:02.509Z,998.3
2016-11-06T15:22:28.051Z,998.31
2016-11-06T15:22:53.624Z,998.31
2016-11-06T15:23:19.192Z,998.31
2016-11-06T15:23:44.757Z,998.31
2016-11-06T15:24:10.316Z,998.31
2016-11-06T15:24:35.881Z,998.3
2016-11-06T15:25:01.443Z,998.3
2016-11-06T15:25:27.014Z,998.32
2016-11-06T15:25:52.565Z,998.3
2016-11-06T15:26:18.140Z,998.35
2016-11-06T15:26:43.707Z,998.33
2016-11-06T15:27:09.265Z,998.35
2016-11-06T15:27:34.905Z,998.36
2016-11-06T15:28:00.475Z,998.33
2016-11-06T15:28:26.043Z,998.34
2016-11-06T15:28:51.624Z,998.32
2016-11-06T15:29:17.237Z,998.36
2016-11-06T15:29:42.792Z,998.37
2016-11-06T15:30:08.441Z,998.37
2016-11-06T15:30:33.971Z,998.37
2016-11-06T15:30:59.535Z,998.37
2016-11-06T15:31:25.100Z,998.39
2016-11-06T15:31:50.650Z,998.38
2016-11-06T15:32:16.228Z,998.41
2016-11-06T15:32:41.785Z,998.37
2016-11-06T15:33:07.438Z,998.35
2016-11-06T15:33:33.036Z,998.39
2016-11-06T15:33:58.610Z,998.34
2016-11-06T15:34:24.207Z,998.35
2016-11-06T15:34:49.783Z,998.36
2016-11-06T15:35:15.338Z,998.36
2016-11-06T15:35:40.922Z,998.36
2016-11-06T15:36:06.520Z,998.4
2016-11-06T15:36:32.121Z,998.39
2016-11-06T15:36:57.759Z,998.42
2016-11-06T15:38:06.156Z,998.39
2016-11-06T15:38:31.740Z,998.39
2016-11-06T15:38:57.327Z,998.42
2016-11-06T15:39:22.906Z,998.47
2016-11-06T15:39:48.458Z,998.44
2016-11-06T15:40:14.041Z,998.42
2016-11-06T15:40:39.634Z,998.42
2016-11-06T15:41:05.257Z,998.47
2016-11-06T15:41:30.823Z,998.46
2016-11-06T15:41:56.384Z,998.51
2016-11-06T15:42:22.053Z,998.47
2016-11-06T15:42:47.634Z,998.48
2016-11-06T15:43:13.186Z,998.51
2016-11-06T15:43:38.778Z,998.45
2016-11-06T15:44:04.467Z,998.49
2016-11-06T15:44:30.055Z,998.46
2016-11-06T15:44:55.644Z,998.49
2016-11-06T15:45:21.257Z,998.48
2016-11-06T15:45:46.892Z,998.51
2016-11-06T15:46:12.483Z,998.47
2016-11-06T15:46:38.099Z,998.52
2016-11-06T15:47:03.677Z,998.51
2016-11-06T15:47:29.550Z,998.47
2016-11-06T15:47:54.831Z,998.51
2016-11-06T15:48:20.454Z,998.51
2016-11-06T15:48:46.016Z,998.5
2016-11-06T15:49:11.629Z,998.51
2016-11-06T15:49:37.208Z,998.52
2016-11-06T15:50:02.751Z,998.57
2016-11-06T15:50:28.352Z,998.55
2016-11-06T15:50:53.947Z,998.56
2016-11-06T15:51:19.533Z,998.53
2016-11-06T15:51:45.107Z,998.59
2016-11-06T15:52:10.686Z,998.58
2016-11-06T15:52:36.278Z,998.56
2016-11-06T15:53:01.909Z,998.57
2016-11-06T15:53:27.552Z,998.57
2016-11-06T15:53:53.147Z,998.56
2016-11-06T15:54:18.706Z,998.58
2016-11-06T15:54:44.294Z,998.62
2016-11-06T15:55:09.878Z,998.57
2016-11-06T15:55:35.435Z,998.59
2016-11-06T15:56:01.018Z,998.56
2016-11-06T15:56:26.711Z,998.59
2016-11-06T15:56:52.270Z,998.56
2016-11-06T15:57:17.845Z,998.59
2016-11-06T15:57:43.427Z,998.57
2016-11-06T15:58:09.014Z,998.58
2016-11-06T15:58:34.654Z,998.61
2016-11-06T15:59:00.299Z,998.59
2016-11-06T15:59:25.850Z,998.6
2016-11-06T15:59:51.435Z,998.61
2016-11-06T16:00:16.986Z,998.62
2016-11-06T16:00:42.565Z,998.64
2016-11-06T16:01:08.128Z,998.66
2016-11-06T16:01:33.687Z,998.66
2016-11-06T16:01:59.246Z,998.68
2016-11-06T16:02:24.824Z,998.66
2016-11-06T16:03:33.179Z,998.67
2016-11-06T16:04:00.483Z,998.66
2016-11-06T16:06:06.184Z,998.68
2016-11-06T16:06:31.744Z,998.7
2016-11-06T16:06:57.269Z,998.72
2016-11-06T16:07:22.822Z,998.7
2016-11-06T16:07:48.384Z,998.7
2016-11-06T16:08:13.936Z,998.7
2016-11-06T16:08:39.519Z,998.73
2016-11-06T16:09:05.155Z,998.7
2016-11-06T16:09:30.723Z,998.73
2016-11-06T16:09:56.332Z,998.73
2016-11-06T16:10:21.887Z,998.73
2016-11-06T16:10:47.475Z,998.76
2016-11-06T16:11:13.032Z,998.77
2016-11-06T16:11:38.587Z,998.74
2016-11-06T16:12:04.150Z,998.71
2016-11-06T16:12:29.735Z,998.75
2016-11-06T16:12:55.318Z,998.76
2016-11-06T16:13:20.879Z,998.77
2016-11-06T16:13:46.453Z,998.79
2016-11-06T16:14:12.037Z,998.8
2016-11-06T16:14:37.600Z,998.78
2016-11-06T16:15:03.186Z,998.79
2016-11-06T16:15:28.766Z,998.79
2016-11-06T16:15:54.323Z,998.79
2016-11-06T16:16:19.925Z,998.78
2016-11-06T16:16:45.496Z,998.76
2016-11-06T16:17:11.052Z,998.81
2016-11-06T16:18:19.416Z,998.81
2016-11-06T16:18:45.079Z,998.84
2016-11-06T16:19:10.708Z,998.87
2016-11-06T16:19:36.279Z,998.85
2016-11-06T16:20:01.836Z,998.87
2016-11-06T16:20:27.425Z,998.85
2016-11-06T16:20:53.008Z,998.84
2016-11-06T16:21:18.559Z,998.87
2016-11-06T16:21:44.146Z,998.85
2016-11-06T16:22:09.709Z,998.82
2016-11-06T16:22:35.271Z,998.86
2016-11-06T16:23:00.911Z,998.91
2016-11-06T16:24:14.381Z,998.9
2016-11-06T16:24:39.959Z,998.92
2016-11-06T16:25:05.534Z,998.91
2016-11-06T16:25:31.133Z,998.89
2016-11-06T16:25:56.713Z,998.9
2016-11-06T16:26:22.270Z,998.89
2016-11-06T16:26:47.837Z,998.91
2016-11-06T16:27:13.428Z,998.91
2016-11-06T16:27:39.027Z,998.91
2016-11-06T16:28:04.602Z,998.95
2016-11-06T16:28:30.153Z,998.93
2016-11-06T16:28:55.771Z,998.97
2016-11-06T16:29:21.449Z,998.94
2016-11-06T16:29:47.022Z,998.94
2016-11-06T16:30:12.587Z,998.94
2016-11-06T16:30:38.236Z,998.93
2016-11-06T16:31:03.815Z,998.96
2016-11-06T16:31:29.428Z,998.97
2016-11-06T16:31:55.001Z,998.98
2016-11-06T16:32:20.560Z,998.96
2016-11-06T16:32:46.114Z,998.97
2016-11-06T16:33:11.697Z,998.98
2016-11-06T16:33:37.268Z,998.98